Martha, Oklahoma
Current Conditions -  °F | °C
As of 4:35 AM on Wednesday 22 Oct 2014 (Local Time) from KAXS Reporting Station
Clear Clear  
Wind Chill: 57°   Ceiling: Unl
Heat Index: 57°   Visibility: 10mi
Dew Point: 50°   Wind: 5mph
Humidity: 76%   Direction: 130°SE
Pressure: 30.09"   Gusts: NA
Location:  34.73°N, 99.39°W
Report Text: KAXS 220935Z AUTO 13004KT 10SM CLR 14/10 A3009 RMK AO2 T01400099
Loading
Personal Weather Stations






























Interactive Weather Map
Tropical Storm Tracking
New forecast layout! Learn more

10-Day Weather Forecast

Advertisements
Track Severe Weather on mobile